Terminal Aerodrome Forecast
Issued by NWS

Home | Current Version | Previous Version | Text Only | Print | Product List | Glossary On
Versions: 1 2 3 4 5 6 7 8 9 10 11 12 13
000
FTUS42 KGSP 250538
TAFGMU
TAF
KGMU 250538Z 2506/2606 21003KT P6SM BKN080
     FM251000 22003KT P6SM FEW070
     FM251500 24008KT P6SM SCT060 BKN250
     FM260100 22003KT P6SM SCT060 BKN120=

USA.gov is the U.S. government's official web portal to all federal, state and local government web resources and services.